createdAt,value
2023-02-17T00:01:15.681Z,31.70
2023-02-17T00:03:42.864Z,33.27
2023-02-17T00:06:11.616Z,39.50
2023-02-17T00:08:38.474Z,37.07
2023-02-17T00:11:05.897Z,31.00
2023-02-17T00:13:34.008Z,33.03
2023-02-17T00:16:08.225Z,35.33
2023-02-17T00:18:35.775Z,34.10
2023-02-17T00:21:12.422Z,35.33
2023-02-17T00:23:39.268Z,37.07
2023-02-17T00:26:08.447Z,41.97
2023-02-17T00:28:36.102Z,42.73
2023-02-17T00:31:11.854Z,41.37
2023-02-17T00:33:38.795Z,43.60
2023-02-17T00:36:17.829Z,47.47
2023-02-17T00:38:45.162Z,46.13
2023-02-17T00:41:12.280Z,49.27
2023-02-17T00:43:39.283Z,42.17
2023-02-17T00:46:07.159Z,40.97
2023-02-17T00:48:34.782Z,40.60
2023-02-17T00:51:01.712Z,37.93
2023-02-17T00:53:29.216Z,36.27
2023-02-17T00:55:56.424Z,39.97
2023-02-17T00:58:23.862Z,33.20
2023-02-17T01:00:50.744Z,33.93
2023-02-17T01:03:18.683Z,30.60
2023-02-17T01:05:48.346Z,36.97
2023-02-17T01:08:16.672Z,29.30
2023-02-17T01:10:46.090Z,31.40
2023-02-17T01:13:15.296Z,37.27
2023-02-17T01:15:45.412Z,29.83
2023-02-17T01:18:13.024Z,27.77
2023-02-17T01:20:40.823Z,31.00
2023-02-17T01:23:09.183Z,27.23
2023-02-17T01:25:41.473Z,26.87
2023-02-17T01:28:12.168Z,28.60
2023-02-17T01:30:39.118Z,26.13
2023-02-17T01:33:05.991Z,25.00
2023-02-17T01:35:34.273Z,31.70
2023-02-17T01:38:01.514Z,27.00
2023-02-17T01:40:28.561Z,24.97
2023-02-17T01:42:55.482Z,29.83
2023-02-17T01:45:22.811Z,27.60
2023-02-17T01:47:59.852Z,22.47
2023-02-17T01:50:51.912Z,25.37
2023-02-17T01:53:25.277Z,24.80
2023-02-17T01:55:53.516Z,24.90
2023-02-17T01:58:23.293Z,25.93
2023-02-17T02:00:52.504Z,30.40
2023-02-17T02:03:20.622Z,30.40
2023-02-17T02:05:47.606Z,32.57
2023-02-17T02:08:15.969Z,32.70
2023-02-17T02:10:42.947Z,30.03
2023-02-17T02:13:10.410Z,31.33
2023-02-17T02:16:03.643Z,33.27
2023-02-17T02:18:42.689Z,31.57
2023-02-17T02:21:40.353Z,26.00
2023-02-17T02:24:19.476Z,26.03
2023-02-17T02:27:14.283Z,28.03
2023-02-17T02:29:50.177Z,29.37
2023-02-17T02:32:32.663Z,35.47
2023-02-17T02:35:14.431Z,25.93
2023-02-17T02:38:01.153Z,26.23
2023-02-17T02:40:33.128Z,26.50
2023-02-17T02:43:02.307Z,26.50
2023-02-17T02:45:29.523Z,29.40
2023-02-17T02:47:58.309Z,23.07
2023-02-17T02:50:52.913Z,24.20
2023-02-17T02:53:57.858Z,25.00
2023-02-17T02:56:43.640Z,23.20
2023-02-17T02:59:26.235Z,22.60
2023-02-17T03:01:59.716Z,23.87
2023-02-17T03:04:36.411Z,22.40
2023-02-17T03:07:12.738Z,19.97
2023-02-17T03:09:39.815Z,20.40
2023-02-17T03:12:07.199Z,20.83
2023-02-17T03:14:38.532Z,23.13
2023-02-17T03:17:05.774Z,18.70
2023-02-17T03:19:32.976Z,17.00
2023-02-17T03:22:11.201Z,17.90
2023-02-17T03:24:38.141Z,17.63
2023-02-17T03:27:05.098Z,17.03
2023-02-17T03:29:32.523Z,16.83
2023-02-17T03:31:59.580Z,17.27
2023-02-17T03:34:27.253Z,18.27
2023-02-17T03:36:54.175Z,15.90
2023-02-17T03:39:21.351Z,15.07
2023-02-17T03:41:51.985Z,14.27
2023-02-17T03:44:19.472Z,12.23
2023-02-17T03:46:47.246Z,14.73
2023-02-17T03:49:14.256Z,13.87
2023-02-17T03:51:41.359Z,14.90
2023-02-17T03:54:08.557Z,16.80
2023-02-17T03:56:35.494Z,16.90
2023-02-17T03:59:02.413Z,14.77
2023-02-17T04:01:29.600Z,11.67
2023-02-17T04:03:56.612Z,14.30
2023-02-17T04:06:23.754Z,13.27
2023-02-17T04:08:50.817Z,16.63
2023-02-17T04:11:18.011Z,15.43
2023-02-17T04:13:44.953Z,11.00
2023-02-17T04:16:11.963Z,11.37
2023-02-17T04:18:39.168Z,13.67
2023-02-17T04:21:06.596Z,13.60
2023-02-17T04:23:36.118Z,10.60
2023-02-17T04:26:08.011Z,9.20
2023-02-17T04:28:38.670Z,8.30
2023-02-17T04:31:05.829Z,9.97
2023-02-17T04:33:33.028Z,9.33
2023-02-17T04:36:00.485Z,11.17
2023-02-17T04:38:31.943Z,12.17
2023-02-17T04:41:00.100Z,13.50
2023-02-17T04:43:28.362Z,11.07
2023-02-17T04:45:55.454Z,18.53
2023-02-17T04:48:22.515Z,9.57
2023-02-17T04:50:49.270Z,11.70
2023-02-17T04:53:16.070Z,8.40
2023-02-17T04:55:43.263Z,8.50
2023-02-17T04:58:10.928Z,9.77
2023-02-17T05:00:37.994Z,8.87
2023-02-17T05:03:04.945Z,9.77
2023-02-17T05:05:31.750Z,9.93
2023-02-17T05:07:58.507Z,12.23
2023-02-17T05:10:25.182Z,8.13
2023-02-17T05:12:52.433Z,8.97
2023-02-17T05:15:19.312Z,11.67
2023-02-17T05:17:48.956Z,8.83
2023-02-17T05:20:15.600Z,12.23
2023-02-17T05:22:42.221Z,10.60
2023-02-17T05:25:08.940Z,10.07
2023-02-17T05:27:36.010Z,11.00
2023-02-17T05:30:03.442Z,11.20
2023-02-17T05:32:30.657Z,10.33
2023-02-17T05:34:57.329Z,10.20
2023-02-17T05:37:24.476Z,11.80
2023-02-17T05:39:51.157Z,12.27
2023-02-17T05:42:17.813Z,15.93
2023-02-17T05:44:44.626Z,10.27
2023-02-17T05:47:11.270Z,12.90
2023-02-17T05:49:38.019Z,10.00
2023-02-17T05:52:04.960Z,10.23
2023-02-17T05:54:31.678Z,9.97
2023-02-17T05:56:58.651Z,8.47
2023-02-17T05:59:25.467Z,9.37
2023-02-17T06:01:52.755Z,11.17
2023-02-17T06:04:19.466Z,9.77
2023-02-17T06:06:46.597Z,9.83
2023-02-17T06:09:13.319Z,13.13
2023-02-17T06:11:40.048Z,16.10
2023-02-17T06:14:06.783Z,17.10
2023-02-17T06:16:33.686Z,21.10
2023-02-17T06:19:02.152Z,15.97
2023-02-17T06:21:29.108Z,16.43
2023-02-17T06:23:56.236Z,12.43
2023-02-17T06:26:23.592Z,19.00
2023-02-17T06:28:50.282Z,14.20
2023-02-17T06:31:17.385Z,12.87
2023-02-17T06:33:44.107Z,17.53
2023-02-17T06:36:10.868Z,16.30
2023-02-17T06:38:37.645Z,13.43
2023-02-17T06:41:04.550Z,14.23
2023-02-17T06:43:31.258Z,14.70
2023-02-17T06:45:58.021Z,14.77
2023-02-17T06:48:25.353Z,13.47
2023-02-17T06:50:52.403Z,16.37
2023-02-17T06:53:19.723Z,15.43
2023-02-17T06:55:46.394Z,12.43
2023-02-17T06:58:13.062Z,13.40
2023-02-17T07:00:39.739Z,14.43
2023-02-17T07:03:06.564Z,12.93
2023-02-17T07:05:37.477Z,12.63
2023-02-17T07:08:04.733Z,16.13
2023-02-17T07:10:32.367Z,12.03
2023-02-17T07:12:59.150Z,13.63
2023-02-17T07:15:28.840Z,15.33
2023-02-17T07:17:55.496Z,15.57
2023-02-17T07:20:22.167Z,21.60
2023-02-17T07:22:48.824Z,12.20
2023-02-17T07:25:15.483Z,12.67
2023-02-17T07:27:42.879Z,14.77
2023-02-17T07:30:09.986Z,14.33
2023-02-17T07:32:36.902Z,15.53
2023-02-17T07:35:03.746Z,14.63
2023-02-17T07:37:30.953Z,15.80
2023-02-17T07:39:57.625Z,13.23
2023-02-17T07:42:24.305Z,13.07
2023-02-17T07:44:51.052Z,18.93
2023-02-17T07:47:17.813Z,13.90
2023-02-17T07:49:44.621Z,13.47
2023-02-17T07:52:11.638Z,14.57
2023-02-17T07:54:38.384Z,15.93
2023-02-17T07:57:04.981Z,15.07
2023-02-17T07:59:32.102Z,15.03
2023-02-17T08:01:58.792Z,17.93
2023-02-17T08:04:26.441Z,19.03
2023-02-17T08:06:53.066Z,18.67
2023-02-17T08:09:39.427Z,14.70
2023-02-17T08:12:24.651Z,15.67
2023-02-17T08:14:51.356Z,13.43
2023-02-17T08:17:18.167Z,18.67
2023-02-17T08:19:49.268Z,13.27
2023-02-17T08:22:19.038Z,14.80
2023-02-17T08:24:45.968Z,13.90
2023-02-17T08:27:14.629Z,14.30
2023-02-17T08:29:41.973Z,12.60
2023-02-17T08:32:09.189Z,14.57
2023-02-17T08:34:36.795Z,11.20
2023-02-17T08:37:06.302Z,16.67
2023-02-17T08:39:34.232Z,12.20
2023-02-17T08:42:01.790Z,11.33
2023-02-17T08:44:28.521Z,13.07
2023-02-17T08:46:55.280Z,12.90
2023-02-17T08:49:25.411Z,14.10
2023-02-17T08:51:52.335Z,15.47
2023-02-17T08:54:19.348Z,11.80
2023-02-17T08:56:46.156Z,13.27
2023-02-17T08:59:13.376Z,15.63
2023-02-17T09:01:41.282Z,11.03
2023-02-17T09:04:09.798Z,11.03
2023-02-17T09:06:45.749Z,12.50
2023-02-17T09:09:15.516Z,11.70
2023-02-17T09:11:43.413Z,11.00
2023-02-17T09:14:10.197Z,13.03
2023-02-17T09:16:37.087Z,8.93
2023-02-17T09:19:04.828Z,16.13
2023-02-17T09:21:32.355Z,12.67
2023-02-17T09:23:59.043Z,10.57
2023-02-17T09:26:26.106Z,11.07
2023-02-17T09:28:52.760Z,10.13
2023-02-17T09:31:22.348Z,10.93
2023-02-17T09:33:49.959Z,9.90
2023-02-17T09:36:20.254Z,22.60
2023-02-17T09:38:47.192Z,11.10
2023-02-17T09:41:26.241Z,11.63
2023-02-17T09:43:54.391Z,10.43
2023-02-17T09:46:27.728Z,12.23
2023-02-17T09:49:00.948Z,11.93
2023-02-17T09:51:38.403Z,14.10
2023-02-17T09:54:12.931Z,12.03
2023-02-17T09:56:42.985Z,15.47
2023-02-17T09:59:20.096Z,9.90
2023-02-17T10:01:48.712Z,12.80
2023-02-17T10:04:34.720Z,11.00
2023-02-17T10:07:26.088Z,8.47
2023-02-17T10:10:24.628Z,13.10
2023-02-17T10:12:56.765Z,9.70
2023-02-17T10:15:28.068Z,13.13
2023-02-17T10:18:13.084Z,14.90
2023-02-17T10:20:48.931Z,11.20
2023-02-17T10:23:19.212Z,12.60
2023-02-17T10:25:55.462Z,10.43
2023-02-17T10:28:33.992Z,14.20
2023-02-17T10:31:09.772Z,11.07
2023-02-17T10:33:58.604Z,11.23
2023-02-17T10:36:43.085Z,9.63
2023-02-17T10:39:21.876Z,9.73
2023-02-17T10:41:51.620Z,9.73
2023-02-17T10:44:25.422Z,9.33
2023-02-17T10:46:54.116Z,12.83
2023-02-17T10:49:35.229Z,9.87
2023-02-17T10:52:11.695Z,10.87
2023-02-17T10:54:54.360Z,9.43
2023-02-17T10:57:22.959Z,11.63
2023-02-17T10:59:50.734Z,13.50
2023-02-17T11:02:28.011Z,7.60
2023-02-17T11:04:55.357Z,15.07
2023-02-17T11:07:41.895Z,9.70
2023-02-17T11:10:41.422Z,9.60
2023-02-17T11:13:35.071Z,8.93
2023-02-17T11:16:02.648Z,9.23
2023-02-17T11:18:33.396Z,7.90
2023-02-17T11:21:10.150Z,9.20
2023-02-17T11:23:51.948Z,11.50
2023-02-17T11:26:28.597Z,8.87
2023-02-17T11:28:55.927Z,10.90
2023-02-17T11:31:32.077Z,6.10
2023-02-17T11:33:59.012Z,7.20
2023-02-17T11:36:31.268Z,6.13
2023-02-17T11:39:00.696Z,6.07
2023-02-17T11:41:27.955Z,7.07
2023-02-17T11:43:59.263Z,7.53
2023-02-17T11:46:29.094Z,7.97
2023-02-17T11:49:14.119Z,8.33
2023-02-17T11:52:19.965Z,11.53
2023-02-17T11:55:25.282Z,5.50
2023-02-17T11:58:11.192Z,7.63
2023-02-17T12:00:47.618Z,8.37
2023-02-17T12:03:35.778Z,7.23
2023-02-17T12:06:38.677Z,5.47
2023-02-17T12:09:20.344Z,6.50
2023-02-17T12:11:50.365Z,4.60
2023-02-17T12:14:47.182Z,7.47
2023-02-17T12:17:36.670Z,6.27
2023-02-17T12:20:27.440Z,5.67
2023-02-17T12:22:54.262Z,6.77
2023-02-17T12:25:33.380Z,4.63
2023-02-17T12:28:20.483Z,5.07
2023-02-17T12:30:52.816Z,7.97
2023-02-17T12:33:25.598Z,6.07
2023-02-17T12:36:03.138Z,8.17
2023-02-17T12:38:33.672Z,6.93
2023-02-17T12:41:06.008Z,5.50
2023-02-17T12:43:49.444Z,9.10
2023-02-17T12:46:21.854Z,8.77
2023-02-17T12:48:54.248Z,5.80
2023-02-17T12:51:28.943Z,5.07
2023-02-17T12:53:58.831Z,5.80
2023-02-17T12:56:26.083Z,7.43
2023-02-17T12:58:56.461Z,6.53
2023-02-17T13:01:26.594Z,6.37
2023-02-17T13:03:54.274Z,10.13
2023-02-17T13:06:21.092Z,5.13
2023-02-17T13:08:58.912Z,5.47
2023-02-17T13:11:27.477Z,5.23
2023-02-17T13:13:54.450Z,5.60
2023-02-17T13:16:22.087Z,6.20
2023-02-17T13:18:51.918Z,12.37
2023-02-17T13:21:23.232Z,5.97
2023-02-17T13:24:13.838Z,7.53
2023-02-17T13:26:45.179Z,4.67
2023-02-17T13:29:23.766Z,5.43
2023-02-17T13:31:56.130Z,5.50
2023-02-17T13:34:29.253Z,6.50
2023-02-17T13:36:57.054Z,6.43
2023-02-17T13:39:29.569Z,7.13
2023-02-17T13:41:58.937Z,8.43
2023-02-17T13:44:30.117Z,8.97
2023-02-17T13:47:12.761Z,8.90
2023-02-17T13:49:40.014Z,9.47
2023-02-17T13:52:08.530Z,12.33
2023-02-17T13:54:35.710Z,10.67
2023-02-17T13:57:02.655Z,12.70
2023-02-17T13:59:29.564Z,14.30
2023-02-17T14:01:56.518Z,14.47
2023-02-17T14:04:30.945Z,19.90
2023-02-17T14:07:00.075Z,18.40
2023-02-17T14:09:32.283Z,19.90
2023-02-17T14:12:03.027Z,17.93
2023-02-17T14:14:33.143Z,20.33
2023-02-17T14:17:03.832Z,21.77
2023-02-17T14:19:46.316Z,20.23
2023-02-17T14:22:37.892Z,22.00
2023-02-17T14:25:26.121Z,21.23
2023-02-17T14:27:53.023Z,24.00
2023-02-17T14:30:29.718Z,23.93
2023-02-17T14:33:08.993Z,31.23
2023-02-17T14:35:39.690Z,28.37
2023-02-17T14:38:20.204Z,24.37
2023-02-17T14:40:48.054Z,26.80
2023-02-17T14:43:15.462Z,21.57
2023-02-17T14:45:42.480Z,22.40
2023-02-17T14:48:09.564Z,22.20
2023-02-17T14:50:42.368Z,25.13
2023-02-17T14:53:12.705Z,26.20
2023-02-17T14:56:00.753Z,24.87
2023-02-17T14:58:29.207Z,21.73
2023-02-17T15:00:56.626Z,23.73
2023-02-17T15:03:24.549Z,29.43
2023-02-17T15:05:51.870Z,26.20
2023-02-17T15:08:22.637Z,26.70
2023-02-17T15:10:51.607Z,26.00
2023-02-17T15:13:21.305Z,23.63
2023-02-17T15:15:49.802Z,21.20
2023-02-17T15:18:19.026Z,23.53
2023-02-17T15:20:48.315Z,19.43
2023-02-17T15:23:20.902Z,23.77
2023-02-17T15:25:48.781Z,24.47
2023-02-17T15:28:18.359Z,15.67
2023-02-17T15:30:51.987Z,17.93
2023-02-17T15:33:21.408Z,23.40
2023-02-17T15:35:53.526Z,18.90
2023-02-17T15:38:21.232Z,17.13
2023-02-17T15:40:49.724Z,18.70
2023-02-17T15:43:21.521Z,17.50
2023-02-17T15:45:49.557Z,14.67
2023-02-17T15:48:24.316Z,18.10
2023-02-17T15:50:52.398Z,17.43
2023-02-17T15:53:20.018Z,17.77
2023-02-17T15:55:47.778Z,17.57
2023-02-17T15:58:18.567Z,13.43
2023-02-17T16:00:46.594Z,15.80
2023-02-17T16:03:15.101Z,14.13
2023-02-17T16:05:42.928Z,17.57
2023-02-17T16:08:09.910Z,15.23
2023-02-17T16:10:36.985Z,12.27
2023-02-17T16:13:04.278Z,13.07
2023-02-17T16:15:32.853Z,14.30
2023-02-17T16:18:00.053Z,13.83
2023-02-17T16:20:30.435Z,16.50
2023-02-17T16:22:57.477Z,15.93
2023-02-17T16:25:24.783Z,12.67
2023-02-17T16:27:53.259Z,14.03
2023-02-17T16:30:33.766Z,13.80
2023-02-17T16:33:02.088Z,13.70
2023-02-17T16:35:32.096Z,14.40
2023-02-17T16:38:07.133Z,11.37
2023-02-17T16:40:36.392Z,12.10
2023-02-17T16:43:04.106Z,11.67
2023-02-17T16:45:32.646Z,10.37
2023-02-17T16:48:01.177Z,12.80
2023-02-17T16:50:37.451Z,10.27
2023-02-17T16:53:08.755Z,14.87
2023-02-17T16:55:37.628Z,12.00
2023-02-17T16:58:13.237Z,10.37
2023-02-17T17:00:40.878Z,14.00
2023-02-17T17:03:07.837Z,14.27
2023-02-17T17:05:35.743Z,13.50
2023-02-17T17:08:03.966Z,10.70
2023-02-17T17:10:32.455Z,8.70
2023-02-17T17:13:00.546Z,12.93
2023-02-17T17:15:28.180Z,12.33
2023-02-17T17:18:07.656Z,10.13
2023-02-17T17:20:41.635Z,15.97
2023-02-17T17:23:17.402Z,9.83
2023-02-17T17:25:46.483Z,10.07
2023-02-17T17:28:15.855Z,12.70
2023-02-17T17:30:42.956Z,11.57
2023-02-17T17:33:09.645Z,10.80
2023-02-17T17:35:37.137Z,11.43
2023-02-17T17:38:04.384Z,7.77
2023-02-17T17:40:48.529Z,19.93
2023-02-17T17:43:16.694Z,10.60
2023-02-17T17:45:43.397Z,9.27
2023-02-17T17:48:13.679Z,12.37
2023-02-17T17:50:41.280Z,11.40
2023-02-17T17:53:08.649Z,9.90
2023-02-17T17:55:35.822Z,10.77
2023-02-17T17:58:02.993Z,10.53
2023-02-17T18:00:29.692Z,11.10
2023-02-17T18:02:56.475Z,13.17
2023-02-17T18:05:23.596Z,11.03
2023-02-17T18:07:51.595Z,12.40
2023-02-17T18:10:18.397Z,11.87
2023-02-17T18:12:46.319Z,11.80
2023-02-17T18:15:13.956Z,8.70
2023-02-17T18:17:42.267Z,13.37
2023-02-17T18:20:10.949Z,15.60
2023-02-17T18:22:37.725Z,10.40
2023-02-17T18:25:05.276Z,14.03
2023-02-17T18:27:43.255Z,9.73
2023-02-17T18:30:15.847Z,9.67
2023-02-17T18:32:44.259Z,11.13
2023-02-17T18:35:11.844Z,17.70
2023-02-17T18:37:40.794Z,17.30
2023-02-17T18:40:11.383Z,12.67
2023-02-17T18:42:39.001Z,13.47
2023-02-17T18:45:06.193Z,11.43
2023-02-17T18:47:33.279Z,11.03
2023-02-17T18:49:59.943Z,10.57
2023-02-17T18:52:27.208Z,18.57
2023-02-17T18:54:53.896Z,13.40
2023-02-17T18:57:20.659Z,11.83
2023-02-17T18:59:47.334Z,18.83
2023-02-17T19:02:14.029Z,12.23
2023-02-17T19:04:40.777Z,14.40
2023-02-17T19:07:10.891Z,10.13
2023-02-17T19:09:46.679Z,10.63
2023-02-17T19:12:15.684Z,14.37
2023-02-17T19:14:42.720Z,12.57
2023-02-17T19:17:10.774Z,14.93
2023-02-17T19:19:41.214Z,11.57
2023-02-17T19:22:11.218Z,19.50
2023-02-17T19:24:40.151Z,17.60
2023-02-17T19:27:07.895Z,11.37
2023-02-17T19:29:35.060Z,11.53
2023-02-17T19:32:03.155Z,19.63
2023-02-17T19:34:31.114Z,12.97
2023-02-17T19:36:58.512Z,14.63
2023-02-17T19:39:25.548Z,17.80
2023-02-17T19:41:52.408Z,17.67
2023-02-17T19:44:20.003Z,23.90
2023-02-17T19:46:46.825Z,19.13
2023-02-17T19:49:13.993Z,21.83
2023-02-17T19:51:40.627Z,22.17
2023-02-17T19:54:07.267Z,21.97
2023-02-17T19:56:36.189Z,23.60
2023-02-17T19:59:02.879Z,22.83
2023-02-17T20:01:31.883Z,24.90
2023-02-17T20:04:01.959Z,24.87
2023-02-17T20:06:36.074Z,23.57
2023-02-17T20:09:06.298Z,18.77
2023-02-17T20:11:33.865Z,13.43
2023-02-17T20:14:02.024Z,15.97
2023-02-17T20:16:29.773Z,17.50
2023-02-17T20:18:56.967Z,23.10
2023-02-17T20:21:26.373Z,17.73
2023-02-17T20:23:53.330Z,20.67
2023-02-17T20:26:25.350Z,21.77
2023-02-17T20:28:53.174Z,25.97
2023-02-17T20:31:20.376Z,20.70
2023-02-17T20:33:48.062Z,21.40
2023-02-17T20:36:15.419Z,24.70
2023-02-17T20:38:43.134Z,24.13
2023-02-17T20:41:14.055Z,23.57
2023-02-17T20:43:44.347Z,31.53
2023-02-17T20:46:25.057Z,31.40
2023-02-17T20:48:52.853Z,31.07
2023-02-17T20:51:20.105Z,25.50
2023-02-17T20:53:47.040Z,29.20
2023-02-17T20:56:17.102Z,28.40
2023-02-17T20:58:44.249Z,31.03
2023-02-17T21:01:12.062Z,29.17
2023-02-17T21:03:39.471Z,28.33
2023-02-17T21:06:27.494Z,27.90
2023-02-17T21:08:57.061Z,35.53
2023-02-17T21:11:24.978Z,29.77
2023-02-17T21:13:56.076Z,26.83
2023-02-17T21:16:26.228Z,25.03
2023-02-17T21:18:53.624Z,26.70
2023-02-17T21:21:21.005Z,32.57
2023-02-17T21:23:48.133Z,26.07
2023-02-17T21:26:16.734Z,24.30
2023-02-17T21:28:47.116Z,24.03
2023-02-17T21:31:15.500Z,29.00
2023-02-17T21:33:43.237Z,19.63
2023-02-17T21:36:12.374Z,20.43
2023-02-17T21:38:40.135Z,16.37
2023-02-17T21:41:10.727Z,22.03
2023-02-17T21:43:57.681Z,24.70
2023-02-17T21:46:25.816Z,24.63
2023-02-17T21:48:53.662Z,23.53
2023-02-17T21:51:20.817Z,22.90
2023-02-17T21:53:47.819Z,26.70
2023-02-17T21:56:14.881Z,27.23
2023-02-17T21:58:49.014Z,28.90
2023-02-17T22:01:17.164Z,28.33
2023-02-17T22:03:44.146Z,32.00
2023-02-17T22:06:23.845Z,34.90
2023-02-17T22:08:51.567Z,28.80
2023-02-17T22:11:26.118Z,32.47
2023-02-17T22:13:58.326Z,36.20
2023-02-17T22:16:25.433Z,32.13
2023-02-17T22:18:52.857Z,33.43
2023-02-17T22:21:19.822Z,35.77
2023-02-17T22:23:46.997Z,32.10
2023-02-17T22:26:25.261Z,35.43
2023-02-17T22:28:53.420Z,38.23
2023-02-17T22:31:23.996Z,35.43
2023-02-17T22:33:51.206Z,39.43
2023-02-17T22:36:22.750Z,41.23
2023-02-17T22:38:50.097Z,32.90
2023-02-17T22:41:19.435Z,34.57
2023-02-17T22:43:49.148Z,37.20
2023-02-17T22:46:18.746Z,38.43
2023-02-17T22:48:47.884Z,36.70
2023-02-17T22:51:21.464Z,38.77
2023-02-17T22:53:48.726Z,39.90
2023-02-17T22:56:16.273Z,35.93
2023-02-17T22:58:43.270Z,37.27
2023-02-17T23:01:14.620Z,43.30
2023-02-17T23:03:42.849Z,42.97
2023-02-17T23:06:18.905Z,44.70
2023-02-17T23:08:47.687Z,43.87
2023-02-17T23:11:17.187Z,40.47
2023-02-17T23:13:44.566Z,43.73
2023-02-17T23:16:11.593Z,42.37
2023-02-17T23:18:38.779Z,45.33
2023-02-17T23:21:11.923Z,40.90
2023-02-17T23:23:39.183Z,44.20
2023-02-17T23:26:06.562Z,44.90
2023-02-17T23:28:34.160Z,46.83
2023-02-17T23:31:01.185Z,44.93
2023-02-17T23:33:28.108Z,48.40
2023-02-17T23:35:55.574Z,40.43
2023-02-17T23:38:22.594Z,43.30
2023-02-17T23:40:51.504Z,43.37
2023-02-17T23:43:19.379Z,44.80
2023-02-17T23:45:46.376Z,50.47
2023-02-17T23:48:13.419Z,51.23
2023-02-17T23:50:40.837Z,45.07
2023-02-17T23:53:08.293Z,56.77
2023-02-17T23:55:35.364Z,55.20
2023-02-17T23:58:02.404Z,47.57
